createdAt,value
2022-10-22T00:00:03.302Z,0
2022-10-22T00:16:00.895Z,0
2022-10-22T00:31:03.037Z,0
2022-10-22T00:46:05.578Z,0
2022-10-22T01:00:02.717Z,0
2022-10-22T01:16:05.398Z,0
2022-10-22T01:31:03.016Z,0
2022-10-22T01:46:05.391Z,0
2022-10-22T02:00:02.608Z,0
2022-10-22T02:16:05.151Z,0
2022-10-22T02:31:02.445Z,0
2022-10-22T02:46:05.019Z,0
2022-10-22T03:00:02.173Z,0
2022-10-22T03:16:04.755Z,0
2022-10-22T03:31:02.305Z,0
2022-10-22T03:46:04.548Z,0
2022-10-22T04:00:01.653Z,0
2022-10-22T04:16:04.213Z,0
2022-10-22T04:31:01.471Z,0
2022-10-22T04:46:03.875Z,0
2022-10-22T05:00:01.180Z,0
2022-10-22T05:16:03.770Z,0
2022-10-22T05:31:01.215Z,0
2022-10-22T05:46:03.792Z,0
2022-10-22T06:00:00.856Z,2
2022-10-22T06:16:03.454Z,42
2022-10-22T06:31:05.669Z,71
2022-10-22T06:46:04.017Z,35
2022-10-22T07:00:05.942Z,34
2022-10-22T07:16:02.908Z,37
2022-10-22T07:31:05.586Z,39
2022-10-22T07:46:02.852Z,35
2022-10-22T08:00:05.070Z,30
2022-10-22T08:16:02.520Z,19
2022-10-22T08:31:04.887Z,31
2022-10-22T08:46:02.388Z,44
2022-10-22T09:00:04.414Z,26
2022-10-22T09:16:02.117Z,42
2022-10-22T09:31:04.491Z,42
2022-10-22T09:46:02.121Z,42
2022-10-22T10:00:04.306Z,49
2022-10-22T10:16:01.740Z,22
2022-10-22T10:31:06.233Z,18
2022-10-22T10:46:01.671Z,20
2022-10-22T11:00:03.801Z,12
2022-10-22T11:16:01.604Z,7
2022-10-22T11:31:03.846Z,8
2022-10-22T11:46:01.130Z,23
2022-10-22T12:00:03.319Z,17
2022-10-22T12:16:00.895Z,15
2022-10-22T12:31:03.415Z,21
2022-10-22T12:46:00.796Z,25
2022-10-22T13:00:02.997Z,16
2022-10-22T13:16:07.979Z,11
2022-10-22T13:31:03.312Z,43
2022-10-22T13:46:05.445Z,42
2022-10-22T14:00:04.901Z,50
2022-10-22T14:16:05.212Z,30
2022-10-22T14:31:02.509Z,52
2022-10-22T14:46:04.890Z,62
2022-10-22T15:00:02.296Z,61
2022-10-22T15:16:04.796Z,49
2022-10-22T15:31:02.664Z,41
2022-10-22T15:46:04.566Z,15
2022-10-22T16:00:01.974Z,6
2022-10-22T16:16:04.437Z,1
2022-10-22T16:31:01.694Z,0
2022-10-22T16:46:04.084Z,0
2022-10-22T17:00:01.334Z,0
2022-10-22T17:16:03.972Z,0
2022-10-22T17:31:01.431Z,0
2022-10-22T17:46:03.712Z,0
2022-10-22T18:00:00.993Z,0
2022-10-22T18:16:03.474Z,0
2022-10-22T18:31:00.810Z,0
2022-10-22T18:46:03.443Z,0
2022-10-22T19:00:05.640Z,0
2022-10-22T19:16:03.286Z,0
2022-10-22T19:31:05.760Z,0
2022-10-22T19:46:02.964Z,0
2022-10-22T20:00:05.308Z,0
2022-10-22T20:16:02.474Z,0
2022-10-22T20:31:04.851Z,0
2022-10-22T20:46:23.728Z,0
2022-10-22T21:00:04.446Z,0
2022-10-22T21:16:02.338Z,0
2022-10-22T21:31:04.588Z,0
2022-10-22T21:46:03.931Z,0
2022-10-22T22:00:04.253Z,0
2022-10-22T22:16:01.863Z,0
2022-10-22T22:31:04.347Z,0
2022-10-22T22:46:01.728Z,0
2022-10-22T23:00:03.943Z,0
2022-10-22T23:16:01.509Z,0
2022-10-22T23:31:03.964Z,0
2022-10-22T23:46:01.378Z,0
